This is the latest recevied weather packets stored in our database for station/object VK5KJP. If no packets are shown the sender has not sent any weather packets the latest 10 day(s).
| Time | Temp. | Humidity | Pressure | Rain* | Wind** | Luminosity | Snow |
|---|---|---|---|---|---|---|---|
| 1777898150 | 11.11° C | 93% | 1023.2 hPa | 0 mm | - | - | - |
| 1777895135 | 12.22° C | 91% | 1022.7 hPa | 0 mm | - | - | - |
| 1777886150 | 14.44° C | 81% | 1020.6 hPa | 0 mm | - | - | - |
| 1777885550 | 14.44° C | 82% | 1020.4 hPa | 0 mm | - | - | - |
| 1777884950 | 15° C | 82% | 1020.3 hPa | 0 mm | - | - | - |
| 1777883726 | 15° C | 80% | 1020 hPa | 0 mm | - | - | - |
| 1777878336 | 16.67° C | 72% | 1019.2 hPa | 0 mm | - | - | - |
| 1777877750 | 17.22° C | 74% | 1019.2 hPa | 0 mm | - | - | - |
| 1777877150 | 17.78° C | 73% | 1019 hPa | 0 mm | - | - | - |
| 1777868770 | 19.44° C | 68% | 1017.5 hPa | 0 mm | - | - | - |
| 1777866350 | 18.89° C | 72% | 1017.5 hPa | 0 mm | - | - | - |
| 1777865776 | 18.33° C | 71% | 1017.5 hPa | 0 mm | - | - | - |
| 1777865170 | 18.89° C | 68% | 1017.5 hPa | 0 mm | - | - | - |
| 1777864550 | 18.33° C | 71% | 1017.6 hPa | 0 mm | - | - | - |
| 1777863350 | 17.78° C | 75% | 1017.7 hPa | 0 mm | - | - | - |
| 1777862746 | 16.67° C | 85% | 1017.8 hPa | 0 mm | - | - | - |
| 1777858526 | 15° C | 96% | 1018.2 hPa | 0.51 mm | - | - | - |
| 1777857376 | 14.44° C | 96% | 1018.3 hPa | 0.76 mm | - | - | - |
| 1777852550 | 14.44° C | 96% | 1017.6 hPa | 2.03 mm | - | - | - |
| 1777851349 | 13.89° C | 96% | 1017.5 hPa | 2.29 mm | - | - | - |
| 1777850750 | 13.89° C | 96% | 1017.4 hPa | 2.29 mm | - | - | - |
| 1777841726 | 13.89° C | 92% | 1015.5 hPa | 2.79 mm | - | - | - |
| 1777839949 | 13.33° C | 91% | 1014.9 hPa | 0.51 mm | - | - | - |
| 1777833949 | 13.33° C | 88% | 1014.6 hPa | 0 mm | - | - | - |
| 1777833326 | 13.33° C | 88% | 1014.6 hPa | 0 mm | - | - | - |
* Rain latest hour (hover to see other rain measurements)
** Current wind speed in m/s (hover to see current wind gust speed)